sensor_id;sensor_type;location;lat;lon;timestamp;pressure;altitude;pressure_sealevel;temperature;humidity
41636;BME280;27623;51.966;4.602;2023-02-01T00:02:17;63958.50;;;7.52;82.79
41636;BME280;27623;51.966;4.602;2023-02-01T00:04:43;63950.91;;;7.52;81.08
41636;BME280;27623;51.966;4.602;2023-02-01T00:07:10;63961.25;;;7.48;82.05
41636;BME280;27623;51.966;4.602;2023-02-01T00:09:37;63941.47;;;7.55;82.94
41636;BME280;27623;51.966;4.602;2023-02-01T00:12:03;63962.84;;;7.64;81.20
41636;BME280;27623;51.966;4.602;2023-02-01T00:14:30;63936.97;;;7.56;81.27
41636;BME280;27623;51.966;4.602;2023-02-01T00:16:57;63963.41;;;7.57;80.33
41636;BME280;27623;51.966;4.602;2023-02-01T00:19:27;63930.97;;;7.57;80.79
41636;BME280;27623;51.966;4.602;2023-02-01T00:21:52;63957.59;;;7.54;82.48
41636;BME280;27623;51.966;4.602;2023-02-01T00:24:18;63946.38;;;7.53;81.27
41636;BME280;27623;51.966;4.602;2023-02-01T00:26:44;63932.44;;;7.56;82.52
41636;BME280;27623;51.966;4.602;2023-02-01T00:29:20;63947.63;;;7.56;81.72
41636;BME280;27623;51.966;4.602;2023-02-01T00:31:46;63948.72;;;7.57;81.50
41636;BME280;27623;51.966;4.602;2023-02-01T00:34:13;63959.06;;;7.53;80.12
41636;BME280;27623;51.966;4.602;2023-02-01T00:36:40;63988.38;;;7.59;80.33
41636;BME280;27623;51.966;4.602;2023-02-01T00:39:05;63950.00;;;7.54;81.22
41636;BME280;27623;51.966;4.602;2023-02-01T00:41:31;63935.34;;;7.47;79.40
41636;BME280;27623;51.966;4.602;2023-02-01T00:43:56;63984.75;;;7.51;79.10
41636;BME280;27623;51.966;4.602;2023-02-01T00:46:22;63962.84;;;7.64;78.36
41636;BME280;27623;51.966;4.602;2023-02-01T00:48:48;63925.00;;;7.59;80.53
41636;BME280;27623;51.966;4.602;2023-02-01T00:51:17;63961.41;;;7.65;78.54
41636;BME280;27623;51.966;4.602;2023-02-01T00:53:43;63938.41;;;7.55;78.15
41636;BME280;27623;51.966;4.602;2023-02-01T00:56:09;63957.63;;;7.40;78.55
41636;BME280;27623;51.966;4.602;2023-02-01T00:58:34;63939.13;;;7.51;79.30
41636;BME280;27623;51.966;4.602;2023-02-01T01:01:24;63935.88;;;7.48;79.42
41636;BME280;27623;51.966;4.602;2023-02-01T01:03:58;63952.19;;;7.35;78.25
41636;BME280;27623;51.966;4.602;2023-02-01T01:06:30;63936.97;;;7.42;78.47
41636;BME280;27623;51.966;4.602;2023-02-01T01:08:57;63940.41;;;7.54;79.76
41636;BME280;27623;51.966;4.602;2023-02-01T01:11:28;63945.66;;;7.50;79.58
41636;BME280;27623;51.966;4.602;2023-02-01T01:13:56;63947.47;;;7.54;80.98
41636;BME280;27623;51.966;4.602;2023-02-01T01:16:24;63932.97;;;7.50;81.92
41636;BME280;27623;51.966;4.602;2023-02-01T01:18:50;63974.25;;;7.53;82.07
41636;BME280;27623;51.966;4.602;2023-02-01T01:21:17;63958.69;;;7.48;81.32
41636;BME280;27623;51.966;4.602;2023-02-01T01:23:43;63971.53;;;7.57;82.06
41636;BME280;27623;51.966;4.602;2023-02-01T01:26:17;63956.69;;;7.55;81.87
41636;BME280;27623;51.966;4.602;2023-02-01T01:28:44;63963.75;;;7.62;81.65
41636;BME280;27623;51.966;4.602;2023-02-01T01:31:12;63979.69;;;7.51;81.00
41636;BME280;27623;51.966;4.602;2023-02-01T01:33:41;63944.94;;;7.68;82.75
41636;BME280;27623;51.966;4.602;2023-02-01T01:36:09;63964.47;;;7.72;81.59
41636;BME280;27623;51.966;4.602;2023-02-01T01:38:39;63996.19;;;7.69;82.01
41636;BME280;27623;51.966;4.602;2023-02-01T01:41:05;63971.91;;;7.55;82.53
41636;BME280;27623;51.966;4.602;2023-02-01T01:44:54;63982.41;;;7.68;84.34
41636;BME280;27623;51.966;4.602;2023-02-01T01:46:35;63963.94;;;7.65;83.55
41636;BME280;27623;51.966;4.602;2023-02-01T01:49:05;63997.09;;;7.67;83.72
41636;BME280;27623;51.966;4.602;2023-02-01T01:51:37;63946.91;;;7.75;84.12
41636;BME280;27623;51.966;4.602;2023-02-01T01:54:17;63965.94;;;7.64;84.04
41636;BME280;27623;51.966;4.602;2023-02-01T01:56:48;63973.38;;;7.62;84.21
41636;BME280;27623;51.966;4.602;2023-02-01T01:59:15;63983.13;;;7.64;84.22
41636;BME280;27623;51.966;4.602;2023-02-01T02:01:42;63968.28;;;7.62;84.42
41636;BME280;27623;51.966;4.602;2023-02-01T02:04:07;63940.41;;;7.54;85.61
41636;BME280;27623;51.966;4.602;2023-02-01T02:06:39;63958.16;;;7.62;85.44
41636;BME280;27623;51.966;4.602;2023-02-01T02:09:10;63976.44;;;7.55;85.02
41636;BME280;27623;51.966;4.602;2023-02-01T02:11:36;63952.00;;;7.61;86.00
41636;BME280;27623;51.966;4.602;2023-02-01T02:14:03;63934.06;;;7.65;86.14
41636;BME280;27623;51.966;4.602;2023-02-01T02:44:49;63928.81;;;7.63;85.02
41636;BME280;27623;51.966;4.602;2023-02-01T02:48:02;63973.38;;;7.62;85.86
41636;BME280;27623;51.966;4.602;2023-02-01T02:50:36;63981.13;;;7.71;86.23
41636;BME280;27623;51.966;4.602;2023-02-01T02:53:27;63946.19;;;7.65;85.98
41636;BME280;27623;51.966;4.602;2023-02-01T02:56:14;63985.31;;;7.80;85.10
41636;BME280;27623;51.966;4.602;2023-02-01T02:58:59;63964.66;;;7.82;85.08
41636;BME280;27623;51.966;4.602;2023-02-01T03:01:43;63966.84;;;7.55;85.46
41636;BME280;27623;51.966;4.602;2023-02-01T03:04:27;63991.47;;;7.74;86.10
41636;BME280;27623;51.966;4.602;2023-02-01T03:06:53;63950.91;;;7.59;85.38
41636;BME280;27623;51.966;4.602;2023-02-01T03:09:24;63957.41;;;7.73;84.84
41636;BME280;27623;51.966;4.602;2023-02-01T03:11:56;63933.53;;;7.65;85.42
41636;BME280;27623;51.966;4.602;2023-02-01T03:14:45;63934.97;;;7.56;86.08
41636;BME280;27623;51.966;4.602;2023-02-01T03:17:15;63957.78;;;7.56;85.83
41636;BME280;27623;51.966;4.602;2023-02-01T03:19:45;63985.47;;;7.75;85.65
41636;BME280;27623;51.966;4.602;2023-02-01T03:22:17;63963.94;;;7.65;85.65
41636;BME280;27623;51.966;4.602;2023-02-01T03:24:48;63960.50;;;7.66;85.74
41636;BME280;27623;51.966;4.602;2023-02-01T03:27:36;63947.81;;;7.59;85.74
41636;BME280;27623;51.966;4.602;2023-02-01T03:30:22;63964.31;;;7.55;85.99
41636;BME280;27623;51.966;4.602;2023-02-01T03:32:51;63954.53;;;7.39;86.26
41636;BME280;27623;51.966;4.602;2023-02-01T03:38:01;63976.81;;;7.39;86.70
41636;BME280;27623;51.966;4.602;2023-02-01T03:40:36;63948.19;;;7.43;88.07
41636;BME280;27623;51.966;4.602;2023-02-01T03:43:05;63909.63;;;7.42;88.89
41636;BME280;27623;51.966;4.602;2023-02-01T03:45:44;63943.84;;;7.46;89.56
41636;BME280;27623;51.966;4.602;2023-02-01T03:48:12;63923.75;;;7.41;86.87
41636;BME280;27623;51.966;4.602;2023-02-01T03:50:44;63934.78;;;7.33;86.82
41636;BME280;27623;51.966;4.602;2023-02-01T03:53:17;63938.78;;;7.32;87.03
41636;BME280;27623;51.966;4.602;2023-02-01T03:55:43;63942.56;;;7.28;87.04
41636;BME280;27623;51.966;4.602;2023-02-01T03:58:12;63934.97;;;7.35;87.15
41636;BME280;27623;51.966;4.602;2023-02-01T04:00:38;63916.34;;;7.37;86.67
41636;BME280;27623;51.966;4.602;2023-02-01T04:03:05;63917.22;;;7.28;86.75
41636;BME280;27623;51.966;4.602;2023-02-01T04:05:33;63943.66;;;7.36;86.59
41636;BME280;27623;51.966;4.602;2023-02-01T04:07:59;63906.75;;;7.30;85.67
41636;BME280;27623;51.966;4.602;2023-02-01T04:10:25;63962.84;;;7.49;85.82
41636;BME280;27623;51.966;4.602;2023-02-01T04:12:51;63946.38;;;7.39;85.06
41636;BME280;27623;51.966;4.602;2023-02-01T04:15:16;63917.25;;;7.42;85.13
41636;BME280;27623;51.966;4.602;2023-02-01T04:17:45;63939.69;;;7.44;85.12
41636;BME280;27623;51.966;4.602;2023-02-01T04:20:10;63911.63;;;7.42;83.88
41636;BME280;27623;51.966;4.602;2023-02-01T04:22:36;63923.38;;;7.50;83.37
41636;BME280;27623;51.966;4.602;2023-02-01T04:25:04;63968.84;;;7.41;83.26
41636;BME280;27623;51.966;4.602;2023-02-01T04:27:31;63943.84;;;7.39;84.77
41636;BME280;27623;51.966;4.602;2023-02-01T04:29:56;63908.38;;;7.39;84.17
41636;BME280;27623;51.966;4.602;2023-02-01T04:32:22;63935.16;;;7.45;84.25
41636;BME280;27623;51.966;4.602;2023-02-01T04:34:47;63946.19;;;7.50;85.08
41636;BME280;27623;51.966;4.602;2023-02-01T04:37:13;63922.13;;;7.47;85.91
41636;BME280;27623;51.966;4.602;2023-02-01T04:39:39;63958.31;;;7.50;83.66
41636;BME280;27623;51.966;4.602;2023-02-01T04:42:05;63934.97;;;7.42;84.60
41636;BME280;27623;51.966;4.602;2023-02-01T04:44:30;63961.94;;;7.51;84.93
41636;BME280;27623;51.966;4.602;2023-02-01T04:46:55;63970.28;;;7.54;85.87
41636;BME280;27623;51.966;4.602;2023-02-01T04:49:21;63946.72;;;7.51;84.55
41636;BME280;27623;51.966;4.602;2023-02-01T04:51:47;63932.78;;;7.54;83.32
41636;BME280;27623;51.966;4.602;2023-02-01T04:54:13;63927.34;;;7.49;84.26
41636;BME280;27623;51.966;4.602;2023-02-01T04:56:39;63967.91;;;7.49;84.75
41636;BME280;27623;51.966;4.602;2023-02-01T04:59:04;63972.63;;;7.66;85.20
41636;BME280;27623;51.966;4.602;2023-02-01T05:01:30;63966.84;;;7.55;84.77
41636;BME280;27623;51.966;4.602;2023-02-01T05:03:56;63939.16;;;7.44;84.26
41636;BME280;27623;51.966;4.602;2023-02-01T05:06:24;63938.59;;;7.43;84.85
41636;BME280;27623;51.966;4.602;2023-02-01T05:08:50;63943.13;;;7.43;85.20
41636;BME280;27623;51.966;4.602;2023-02-01T05:11:15;63922.31;;;7.35;84.81
41636;BME280;27623;51.966;4.602;2023-02-01T05:13:59;63912.16;;;7.35;86.22
41636;BME280;27623;51.966;4.602;2023-02-01T05:16:26;63918.16;;;7.27;85.98
41636;BME280;27623;51.966;4.602;2023-02-01T05:18:51;63946.56;;;7.34;85.21
41636;BME280;27623;51.966;4.602;2023-02-01T05:21:17;63899.69;;;7.23;85.86
41636;BME280;27623;51.966;4.602;2023-02-01T05:23:43;63953.28;;;7.21;86.80
41636;BME280;27623;51.966;4.602;2023-02-01T05:26:26;63924.84;;;7.28;87.68
41636;BME280;27623;51.966;4.602;2023-02-01T05:28:54;63911.47;;;7.25;86.92
41636;BME280;27623;51.966;4.602;2023-02-01T05:31:20;63919.59;;;7.26;87.22
41636;BME280;27623;51.966;4.602;2023-02-01T05:33:46;63949.09;;;7.34;86.38
41636;BME280;27623;51.966;4.602;2023-02-01T05:36:14;63938.06;;;7.21;86.29
41636;BME280;27623;51.966;4.602;2023-02-01T05:38:40;63904.75;;;7.23;87.15
41636;BME280;27623;51.966;4.602;2023-02-01T05:41:06;63896.25;;;7.18;87.24
41636;BME280;27623;51.966;4.602;2023-02-01T05:43:32;63904.03;;;7.13;87.76
41636;BME280;27623;51.966;4.602;2023-02-01T05:45:57;63898.44;;;7.13;88.09
41636;BME280;27623;51.966;4.602;2023-02-01T05:48:23;63918.88;;;7.22;88.01
41636;BME280;27623;51.966;4.602;2023-02-01T05:50:49;63932.28;;;7.18;88.54
41636;BME280;27623;51.966;4.602;2023-02-01T05:53:14;63910.38;;;7.24;89.08
41636;BME280;27623;51.966;4.602;2023-02-01T05:55:41;63921.41;;;7.30;88.16
41636;BME280;27623;51.966;4.602;2023-02-01T05:58:07;63937.16;;;7.16;88.37
41636;BME280;27623;51.966;4.602;2023-02-01T06:00:32;63904.22;;;7.23;89.20
41636;BME280;27623;51.966;4.602;2023-02-01T06:02:58;63886.31;;;7.13;89.24
41636;BME280;27623;51.966;4.602;2023-02-01T06:05:23;63932.09;;;7.16;88.54
41636;BME280;27623;51.966;4.602;2023-02-01T06:07:49;63949.09;;;7.34;88.71
41636;BME280;27623;51.966;4.602;2023-02-01T06:10:17;63900.41;;;7.27;88.72
41636;BME280;27623;51.966;4.602;2023-02-01T06:12:43;63919.59;;;7.33;88.72
41636;BME280;27623;51.966;4.602;2023-02-01T06:15:10;63914.16;;;7.28;88.63
41636;BME280;27623;51.966;4.602;2023-02-01T06:17:36;63916.53;;;7.25;88.51
41636;BME280;27623;51.966;4.602;2023-02-01T06:20:03;63842.50;;;7.10;89.53
41636;BME280;27623;51.966;4.602;2023-02-01T06:22:28;63895.91;;;7.20;90.03
41636;BME280;27623;51.966;4.602;2023-02-01T06:24:54;63916.34;;;7.37;89.96
41636;BME280;27623;51.966;4.602;2023-02-01T06:27:21;63905.09;;;7.29;88.77
41636;BME280;27623;51.966;4.602;2023-02-01T06:29:46;63911.63;;;7.13;89.01
41636;BME280;27623;51.966;4.602;2023-02-01T06:32:12;63887.38;;;7.14;89.24
41636;BME280;27623;51.966;4.602;2023-02-01T06:34:38;63882.50;;;7.10;90.03
41636;BME280;27623;51.966;4.602;2023-02-01T06:37:04;63910.72;;;7.08;89.36
41636;BME280;27623;51.966;4.602;2023-02-01T06:39:32;63881.22;;;7.13;90.01
41636;BME280;27623;51.966;4.602;2023-02-01T06:41:57;63917.78;;;7.29;89.33
41636;BME280;27623;51.966;4.602;2023-02-01T06:44:23;63946.56;;;7.27;89.36
41636;BME280;27623;51.966;4.602;2023-02-01T06:46:49;63930.63;;;7.31;88.71
41636;BME280;27623;51.966;4.602;2023-02-01T06:49:14;63934.97;;;7.28;87.82
41636;BME280;27623;51.966;4.602;2023-02-01T06:51:43;63940.41;;;7.26;88.49
41636;BME280;27623;51.966;4.602;2023-02-01T06:54:09;63921.59;;;7.25;87.26
41636;BME280;27623;51.966;4.602;2023-02-01T06:56:35;63922.47;;;7.31;88.03
41636;BME280;27623;51.966;4.602;2023-02-01T06:59:03;63952.34;;;7.30;89.01
41636;BME280;27623;51.966;4.602;2023-02-01T07:01:29;63890.81;;;7.34;88.15
41636;BME280;27623;51.966;4.602;2023-02-01T07:03:55;63893.53;;;7.15;88.31
41636;BME280;27623;51.966;4.602;2023-02-01T07:06:21;63923.22;;;7.27;88.41
41636;BME280;27623;51.966;4.602;2023-02-01T07:08:46;63908.19;;;7.36;87.81
41636;BME280;27623;51.966;4.602;2023-02-01T07:11:14;63921.75;;;7.35;88.28
41636;BME280;27623;51.966;4.602;2023-02-01T07:13:40;63907.13;;;7.21;88.55
41636;BME280;27623;51.966;4.602;2023-02-01T07:16:08;63918.69;;;7.27;89.61
41636;BME280;27623;51.966;4.602;2023-02-01T07:18:34;63889.19;;;7.26;89.37
41636;BME280;27623;51.966;4.602;2023-02-01T07:21:00;63926.13;;;7.24;89.47
41636;BME280;27623;51.966;4.602;2023-02-01T07:23:26;63926.47;;;7.22;89.20
41636;BME280;27623;51.966;4.602;2023-02-01T07:26:03;63955.44;;;7.31;89.10
41636;BME280;27623;51.966;4.602;2023-02-01T07:28:33;63931.53;;;7.30;89.44
41636;BME280;27623;51.966;4.602;2023-02-01T07:31:07;63929.91;;;7.35;88.78
41636;BME280;27623;51.966;4.602;2023-02-01T07:33:34;63931.53;;;7.37;89.03
41636;BME280;27623;51.966;4.602;2023-02-01T07:36:03;63952.38;;;7.44;88.92
41636;BME280;27623;51.966;4.602;2023-02-01T07:38:29;63901.66;;;7.37;88.81
41636;BME280;27623;51.966;4.602;2023-02-01T07:41:05;63974.81;;;7.46;88.23
41636;BME280;27623;51.966;4.602;2023-02-01T07:43:34;63955.06;;;7.40;88.60
41636;BME280;27623;51.966;4.602;2023-02-01T07:45:59;63928.28;;;7.34;88.46
41636;BME280;27623;51.966;4.602;2023-02-01T07:48:26;63913.25;;;7.29;89.00
41636;BME280;27623;51.966;4.602;2023-02-01T07:51:03;63952.19;;;7.42;89.54
41636;BME280;27623;51.966;4.602;2023-02-01T07:53:32;63916.88;;;7.30;90.00
41636;BME280;27623;51.966;4.602;2023-02-01T07:55:58;63918.16;;;7.27;89.86
41636;BME280;27623;51.966;4.602;2023-02-01T07:58:25;63918.31;;;7.43;89.61
41636;BME280;27623;51.966;4.602;2023-02-01T08:00:50;63896.25;;;7.32;89.04
41636;BME280;27623;51.966;4.602;2023-02-01T08:03:34;63923.22;;;7.27;89.45
41636;BME280;27623;51.966;4.602;2023-02-01T08:06:00;63845.41;;;7.15;89.41
41636;BME280;27623;51.966;4.602;2023-02-01T08:08:25;63951.66;;;7.27;90.03
41636;BME280;27623;51.966;4.602;2023-02-01T08:10:51;63936.44;;;7.27;90.22
41636;BME280;27623;51.966;4.602;2023-02-01T08:13:16;63916.88;;;7.30;89.47
41636;BME280;27623;51.966;4.602;2023-02-01T08:15:42;63955.63;;;7.40;89.81
41636;BME280;27623;51.966;4.602;2023-02-01T08:18:08;63931.72;;;7.39;89.86
41636;BME280;27623;51.966;4.602;2023-02-01T08:20:35;63900.75;;;7.32;88.91
41636;BME280;27623;51.966;4.602;2023-02-01T08:23:01;63921.22;;;7.34;88.62
41636;BME280;27623;51.966;4.602;2023-02-01T08:25:27;63948.91;;;7.53;89.43
41636;BME280;27623;51.966;4.602;2023-02-01T08:27:53;63946.75;;;7.58;88.70
41636;BME280;27623;51.966;4.602;2023-02-01T08:30:19;63963.94;;;7.50;88.83
41636;BME280;27623;51.966;4.602;2023-02-01T08:32:45;63943.13;;;7.43;88.32
41636;BME280;27623;51.966;4.602;2023-02-01T08:35:11;63939.88;;;7.40;88.42
41636;BME280;27623;51.966;4.602;2023-02-01T08:37:36;63919.97;;;7.45;88.88
41636;BME280;27623;51.966;4.602;2023-02-01T08:40:03;63966.66;;;7.46;88.33
41636;BME280;27623;51.966;4.602;2023-02-01T08:42:28;63977.34;;;7.46;88.07
41636;BME280;27623;51.966;4.602;2023-02-01T08:45:12;63940.56;;;7.50;87.69
41636;BME280;27623;51.966;4.602;2023-02-01T08:47:38;63971.53;;;7.57;88.19
41636;BME280;27623;51.966;4.602;2023-02-01T08:50:04;63982.22;;;7.51;87.90
41636;BME280;27623;51.966;4.602;2023-02-01T08:52:30;63971.38;;;7.55;87.59
41636;BME280;27623;51.966;4.602;2023-02-01T08:54:55;63944.03;;;7.63;87.90
41636;BME280;27623;51.966;4.602;2023-02-01T08:57:20;63983.50;;;7.62;87.66
41636;BME280;27623;51.966;4.602;2023-02-01T08:59:46;63966.66;;;7.60;87.10
41636;BME280;27623;51.966;4.602;2023-02-01T09:02:16;63957.41;;;7.58;87.98
41636;BME280;27623;51.966;4.602;2023-02-01T09:04:45;63980.78;;;7.59;87.61
41636;BME280;27623;51.966;4.602;2023-02-01T09:07:11;63936.78;;;7.61;87.74
41636;BME280;27623;51.966;4.602;2023-02-01T09:09:38;63939.31;;;7.68;87.82
41636;BME280;27623;51.966;4.602;2023-02-01T09:12:04;63991.28;;;7.78;88.47
41636;BME280;27623;51.966;4.602;2023-02-01T09:14:30;64006.31;;;7.83;87.96
41636;BME280;27623;51.966;4.602;2023-02-01T09:16:55;63967.72;;;7.82;87.59
41636;BME280;27623;51.966;4.602;2023-02-01T09:19:21;63983.69;;;7.85;88.06
41636;BME280;27623;51.966;4.602;2023-02-01T09:21:47;63971.69;;;7.96;87.59
41636;BME280;27623;51.966;4.602;2023-02-01T09:24:12;63989.28;;;8.00;87.07
41636;BME280;27623;51.966;4.602;2023-02-01T09:26:38;64014.28;;;7.95;86.88
41636;BME280;27623;51.966;4.602;2023-02-01T09:29:04;63989.09;;;7.98;87.35
41636;BME280;27623;51.966;4.602;2023-02-01T09:31:37;64026.97;;;7.88;87.31
41636;BME280;27623;51.966;4.602;2023-02-01T09:34:03;64019.50;;;8.12;86.97
41636;BME280;27623;51.966;4.602;2023-02-01T09:36:29;64020.81;;;8.08;86.50
41636;BME280;27623;51.966;4.602;2023-02-01T09:38:55;64020.63;;;8.06;85.55
41636;BME280;27623;51.966;4.602;2023-02-01T09:41:35;64016.81;;;8.09;86.08
41636;BME280;27623;51.966;4.602;2023-02-01T09:46:35;64007.94;;;8.06;84.40
41636;BME280;27623;51.966;4.602;2023-02-01T09:49:04;63993.97;;;8.09;84.19
41636;BME280;27623;51.966;4.602;2023-02-01T09:51:37;63987.97;;;8.11;83.43
41636;BME280;27623;51.966;4.602;2023-02-01T09:54:22;63997.59;;;8.03;84.24
41636;BME280;27623;51.966;4.602;2023-02-01T09:56:53;64017.19;;;8.00;83.80
41636;BME280;27623;51.966;4.602;2023-02-01T09:59:39;63986.38;;;8.02;84.11
41636;BME280;27623;51.966;4.602;2023-02-01T10:02:20;63990.53;;;7.97;83.31
41636;BME280;27623;51.966;4.602;2023-02-01T10:04:47;64017.19;;;8.07;83.81
41636;BME280;27623;51.966;4.602;2023-02-01T10:10:20;64006.50;;;7.85;83.70
41636;BME280;27623;51.966;4.602;2023-02-01T10:13:03;64002.31;;;7.98;84.51
41636;BME280;27623;51.966;4.602;2023-02-01T10:24:16;64005.94;;;7.92;84.47
41636;BME280;27623;51.966;4.602;2023-02-01T10:27:06;63985.09;;;7.91;83.82
41636;BME280;27623;51.966;4.602;2023-02-01T10:29:39;63972.97;;;7.92;83.84
41636;BME280;27623;51.966;4.602;2023-02-01T10:32:20;64006.13;;;8.02;84.85
41636;BME280;27623;51.966;4.602;2023-02-01T10:34:58;64016.81;;;8.02;85.33
41636;BME280;27623;51.966;4.602;2023-02-01T10:37:32;64022.97;;;8.03;85.12
41636;BME280;27623;51.966;4.602;2023-02-01T10:40:02;63991.25;;;8.00;86.44
41636;BME280;27623;51.966;4.602;2023-02-01T10:42:34;64034.75;;;7.98;85.74
41636;BME280;27623;51.966;4.602;2023-02-01T10:45:02;64014.66;;;8.07;85.59
41636;BME280;27623;51.966;4.602;2023-02-01T10:47:31;64018.06;;;8.13;86.32
41636;BME280;27623;51.966;4.602;2023-02-01T10:50:29;64035.09;;;8.17;85.40
41636;BME280;27623;51.966;4.602;2023-02-01T10:53:18;64001.75;;;8.12;85.12
41636;BME280;27623;51.966;4.602;2023-02-01T10:55:49;64001.38;;;8.21;85.53
41636;BME280;27623;51.966;4.602;2023-02-01T10:58:30;64000.28;;;8.41;84.44
41636;BME280;27623;51.966;4.602;2023-02-01T11:01:06;64033.66;;;8.18;83.95
41636;BME280;27623;51.966;4.602;2023-02-01T11:04:01;64020.97;;;8.32;83.72
41636;BME280;27623;51.966;4.602;2023-02-01T11:06:28;64063.22;;;8.34;83.25
41636;BME280;27623;51.966;4.602;2023-02-01T11:08:57;64064.28;;;8.20;83.29
41636;BME280;27623;51.966;4.602;2023-02-01T11:11:24;64023.88;;;8.30;83.72
41636;BME280;27623;51.966;4.602;2023-02-01T11:13:58;64032.03;;;8.31;83.65
41636;BME280;27623;51.966;4.602;2023-02-01T11:16:37;64025.13;;;8.34;83.42
41636;BME280;27623;51.966;4.602;2023-02-01T11:19:04;64039.09;;;8.37;83.38
41636;BME280;27623;51.966;4.602;2023-02-01T11:21:30;64032.22;;;8.33;83.30
41636;BME280;27623;51.966;4.602;2023-02-01T11:24:01;64080.09;;;8.49;83.12
41636;BME280;27623;51.966;4.602;2023-02-01T11:26:27;64029.47;;;8.45;83.73
41636;BME280;27623;51.966;4.602;2023-02-01T11:29:04;64051.25;;;8.37;84.03
41636;BME280;27623;51.966;4.602;2023-02-01T11:31:32;64050.69;;;8.36;83.65
41636;BME280;27623;51.966;4.602;2023-02-01T11:34:18;64075.53;;;8.57;83.15
41636;BME280;27623;51.966;4.602;2023-02-01T11:36:47;64067.72;;;8.54;83.61
41636;BME280;27623;51.966;4.602;2023-02-01T11:39:26;64028.72;;;8.56;83.75
41636;BME280;27623;51.966;4.602;2023-02-01T11:42:26;64044.88;;;8.54;83.10
41636;BME280;27623;51.966;4.602;2023-02-01T11:47:55;64062.84;;;8.50;83.67
41636;BME280;27623;51.966;4.602;2023-02-01T11:50:36;64098.38;;;8.57;84.40
41636;BME280;27623;51.966;4.602;2023-02-01T11:56:03;64068.63;;;8.67;83.77
41636;BME280;27623;51.966;4.602;2023-02-01T11:59:09;64060.66;;;8.62;83.72
41636;BME280;27623;51.966;4.602;2023-02-01T12:07:27;64063.38;;;8.65;83.88
41636;BME280;27623;51.966;4.602;2023-02-01T12:10:01;64037.63;;;8.59;83.23
41636;BME280;27623;51.966;4.602;2023-02-01T12:12:54;64071.53;;;8.58;83.53
41636;BME280;27623;51.966;4.602;2023-02-01T12:21:43;64071.56;;;8.51;82.73
41636;BME280;27623;51.966;4.602;2023-02-01T12:27:14;64050.69;;;8.43;84.40
41636;BME280;27623;51.966;4.602;2023-02-01T12:37:57;64118.66;;;9.07;80.81
41636;BME280;27623;51.966;4.602;2023-02-01T12:40:52;64153.47;;;9.25;80.90
41636;BME280;27623;51.966;4.602;2023-02-01T12:43:37;64136.06;;;9.16;80.00
41636;BME280;27623;51.966;4.602;2023-02-01T12:46:08;64140.06;;;9.15;80.33
41636;BME280;27623;51.966;4.602;2023-02-01T12:48:40;64157.50;;;9.10;81.48
41636;BME280;27623;51.966;4.602;2023-02-01T12:51:12;64103.22;;;9.04;80.81
41636;BME280;27623;51.966;4.602;2023-02-01T12:53:50;64126.47;;;9.02;81.54
41636;BME280;27623;51.966;4.602;2023-02-01T12:56:30;64123.91;;;9.09;81.21
41636;BME280;27623;51.966;4.602;2023-02-01T12:59:04;64118.47;;;8.97;82.18
41636;BME280;27623;51.966;4.602;2023-02-01T13:01:39;64121.94;;;9.03;81.40
41636;BME280;27623;51.966;4.602;2023-02-01T13:06:45;64127.00;;;9.10;81.79
41636;BME280;27623;51.966;4.602;2023-02-01T13:09:20;64098.00;;;8.87;81.69
41636;BME280;27623;51.966;4.602;2023-02-01T13:11:48;64086.94;;;8.82;81.58
41636;BME280;27623;51.966;4.602;2023-02-01T13:17:05;64077.84;;;8.90;83.06
41636;BME280;27623;51.966;4.602;2023-02-01T13:19:56;64087.28;;;8.87;82.63
41636;BME280;27623;51.966;4.602;2023-02-01T13:22:36;64078.56;;;8.86;82.23
41636;BME280;27623;51.966;4.602;2023-02-01T13:27:37;64077.84;;;8.76;83.00
41636;BME280;27623;51.966;4.602;2023-02-01T13:30:19;64091.97;;;8.96;83.26
41636;BME280;27623;51.966;4.602;2023-02-01T13:35:37;64066.59;;;8.89;83.74
41636;BME280;27623;51.966;4.602;2023-02-01T13:41:00;64095.63;;;8.76;84.21
41636;BME280;27623;51.966;4.602;2023-02-01T13:43:32;64100.19;;;8.75;83.44
41636;BME280;27623;51.966;4.602;2023-02-01T13:46:04;64074.22;;;8.75;84.30
41636;BME280;27623;51.966;4.602;2023-02-01T13:51:15;64093.66;;;8.76;84.89
41636;BME280;27623;51.966;4.602;2023-02-01T13:53:48;64040.16;;;8.67;84.54
41636;BME280;27623;51.966;4.602;2023-02-01T13:56:18;64087.28;;;8.80;84.69
41636;BME280;27623;51.966;4.602;2023-02-01T13:58:45;64081.69;;;8.72;84.95
41636;BME280;27623;51.966;4.602;2023-02-01T14:01:38;64092.38;;;8.80;84.57
41636;BME280;27623;51.966;4.602;2023-02-01T14:04:05;64076.78;;;8.75;84.94
41636;BME280;27623;51.966;4.602;2023-02-01T14:11:54;64128.84;;;8.85;85.48
41636;BME280;27623;51.966;4.602;2023-02-01T14:19:30;64059.38;;;8.73;85.62
41636;BME280;27623;51.966;4.602;2023-02-01T14:22:32;64110.16;;;8.80;86.58
41636;BME280;27623;51.966;4.602;2023-02-01T14:24:55;64069.50;;;8.87;85.60
41636;BME280;27623;51.966;4.602;2023-02-01T14:27:22;64094.72;;;8.84;85.51
41636;BME280;27623;51.966;4.602;2023-02-01T14:29:56;64064.47;;;8.66;86.14
41636;BME280;27623;51.966;4.602;2023-02-01T14:32:38;64081.31;;;8.60;86.84
41636;BME280;27623;51.966;4.602;2023-02-01T14:35:20;64086.78;;;8.72;86.54
41636;BME280;27623;51.966;4.602;2023-02-01T14:37:51;64082.22;;;8.66;86.46
41636;BME280;27623;51.966;4.602;2023-02-01T14:40:25;64070.81;;;8.69;86.40
41636;BME280;27623;51.966;4.602;2023-02-01T14:42:52;64053.94;;;8.68;87.90
41636;BME280;27623;51.966;4.602;2023-02-01T14:47:49;64078.59;;;8.72;87.38
41636;BME280;27623;51.966;4.602;2023-02-01T14:50:36;64099.63;;;8.82;87.47
41636;BME280;27623;51.966;4.602;2023-02-01T14:55:53;64081.31;;;8.81;87.10
41636;BME280;27623;51.966;4.602;2023-02-01T14:58:40;64086.38;;;8.74;87.54
41636;BME280;27623;51.966;4.602;2023-02-01T15:01:22;64095.81;;;8.85;87.89
41636;BME280;27623;51.966;4.602;2023-02-01T15:04:09;64068.06;;;8.74;87.83
41636;BME280;27623;51.966;4.602;2023-02-01T15:06:44;64113.97;;;8.76;87.21
41636;BME280;27623;51.966;4.602;2023-02-01T15:09:17;64099.44;;;8.86;88.41
41636;BME280;27623;51.966;4.602;2023-02-01T15:11:59;64068.81;;;8.70;88.89
41636;BME280;27623;51.966;4.602;2023-02-01T15:14:30;64083.84;;;8.74;88.92
41636;BME280;27623;51.966;4.602;2023-02-01T15:16:56;64095.28;;;8.71;89.26